createdAt,value
2023-05-14T00:00:32.353Z,14.77
2023-05-14T00:03:56.525Z,14.87
2023-05-14T00:07:00.500Z,14.91
2023-05-14T00:10:04.592Z,14.94
2023-05-14T00:13:08.207Z,15.10
2023-05-14T00:16:13.649Z,14.99
2023-05-14T00:19:18.895Z,15.02
2023-05-14T00:22:22.901Z,14.96
2023-05-14T00:25:26.585Z,14.96
2023-05-14T00:28:33.004Z,15.15
2023-05-14T00:31:37.925Z,15.03
2023-05-14T00:34:41.807Z,15.04
2023-05-14T00:37:46.508Z,15.20
2023-05-14T00:40:52.121Z,15.18
2023-05-14T00:43:55.627Z,15.26
2023-05-14T00:47:01.904Z,15.07
2023-05-14T00:50:06.552Z,14.97
2023-05-14T00:53:11.474Z,14.81
2023-05-14T00:56:16.665Z,14.76
2023-05-14T00:59:20.741Z,15.02
2023-05-14T01:02:25.807Z,15.25
2023-05-14T01:05:36.760Z,15.25
2023-05-14T01:08:50.819Z,15.31
2023-05-14T01:12:02.296Z,15.05
2023-05-14T01:15:12.552Z,15.14
2023-05-14T01:18:20.324Z,14.99
2023-05-14T01:21:38.813Z,15.13
2023-05-14T01:24:42.597Z,15.16
2023-05-14T01:27:54.351Z,14.71
2023-05-14T01:31:03.602Z,14.65
2023-05-14T01:34:08.088Z,14.64
2023-05-14T01:37:14.100Z,14.44
2023-05-14T01:40:38.039Z,14.52
2023-05-14T01:43:42.615Z,14.61
2023-05-14T01:46:46.105Z,14.45
2023-05-14T01:49:50.249Z,14.21
2023-05-14T01:52:56.719Z,14.06
2023-05-14T01:56:00.824Z,14.25
2023-05-14T01:59:04.629Z,14.07
2023-05-14T02:02:08.623Z,14.19
2023-05-14T02:05:13.589Z,14.20
2023-05-14T02:08:19.168Z,14.06
2023-05-14T02:11:22.778Z,14.14
2023-05-14T02:14:26.571Z,13.97
2023-05-14T02:17:30.055Z,14.07
2023-05-14T02:20:33.944Z,14.16
2023-05-14T02:23:42.062Z,14.14
2023-05-14T02:26:46.817Z,14.24
2023-05-14T02:29:50.436Z,13.99
2023-05-14T02:32:54.446Z,13.80
2023-05-14T02:35:58.101Z,13.95
2023-05-14T02:39:04.770Z,13.59
2023-05-14T02:42:08.872Z,13.87
2023-05-14T02:45:12.955Z,13.71
2023-05-14T02:48:16.835Z,13.72
2023-05-14T02:51:21.298Z,13.63
2023-05-14T02:54:26.394Z,13.79
2023-05-14T02:57:30.285Z,13.56
2023-05-14T03:00:33.888Z,13.19
2023-05-14T03:03:38.388Z,13.31
2023-05-14T03:06:42.657Z,12.96
2023-05-14T03:09:48.427Z,12.88
2023-05-14T03:12:52.094Z,12.78
2023-05-14T03:15:56.963Z,12.92
2023-05-14T03:19:00.759Z,12.75
2023-05-14T03:22:05.222Z,12.55
2023-05-14T03:25:10.929Z,12.90
2023-05-14T03:28:15.091Z,12.38
2023-05-14T03:31:18.891Z,12.47
2023-05-14T03:34:23.149Z,12.34
2023-05-14T03:37:27.146Z,12.36
2023-05-14T03:40:32.396Z,12.65
2023-05-14T03:43:36.327Z,12.65
2023-05-14T03:46:40.399Z,12.73
2023-05-14T03:49:44.013Z,12.81
2023-05-14T03:52:50.960Z,12.87
2023-05-14T03:55:55.780Z,12.79
2023-05-14T03:58:59.542Z,13.02
2023-05-14T04:02:03.274Z,13.14
2023-05-14T04:05:07.908Z,13.18
2023-05-14T04:08:11.580Z,13.09
2023-05-14T04:11:17.061Z,12.97
2023-05-14T04:14:20.732Z,13.14
2023-05-14T04:17:25.767Z,12.95
2023-05-14T04:20:29.397Z,12.67
2023-05-14T04:23:33.341Z,12.40
2023-05-14T04:26:38.197Z,12.82
2023-05-14T04:29:42.171Z,12.99
2023-05-14T04:32:45.699Z,12.88
2023-05-14T04:35:49.701Z,12.97
2023-05-14T04:38:53.192Z,12.44
2023-05-14T04:41:58.666Z,12.95
2023-05-14T04:45:02.244Z,12.94
2023-05-14T04:48:07.912Z,12.85
2023-05-14T04:51:11.610Z,12.82
2023-05-14T04:54:15.833Z,12.95
2023-05-14T04:57:21.182Z,13.05
2023-05-14T05:00:25.406Z,13.04
2023-05-14T05:03:29.484Z,12.97
2023-05-14T05:06:34.017Z,12.95
2023-05-14T05:09:37.663Z,13.09
2023-05-14T05:12:43.277Z,13.13
2023-05-14T05:16:36.990Z,13.10
2023-05-14T05:19:44.199Z,13.22
2023-05-14T05:22:48.288Z,12.77
2023-05-14T05:25:52.090Z,13.04
2023-05-14T05:28:57.148Z,13.27
2023-05-14T05:32:01.424Z,12.82
2023-05-14T05:35:05.219Z,12.59
2023-05-14T05:38:09.510Z,12.53
2023-05-14T05:41:13.431Z,13.00
2023-05-14T05:44:23.223Z,13.05
2023-05-14T05:47:30.246Z,13.33
2023-05-14T05:50:34.252Z,13.41
2023-05-14T05:53:37.849Z,13.37
2023-05-14T05:56:41.809Z,13.30
2023-05-14T05:59:46.634Z,13.42
2023-05-14T06:02:50.650Z,13.42
2023-05-14T06:05:54.282Z,13.71
2023-05-14T06:08:58.031Z,13.82
2023-05-14T06:12:01.560Z,14.05
2023-05-14T06:15:08.286Z,13.48
2023-05-14T06:18:12.186Z,13.77
2023-05-14T06:21:16.095Z,13.90
2023-05-14T06:24:20.128Z,13.76
2023-05-14T06:27:32.204Z,13.63
2023-05-14T06:34:40.241Z,13.71
2023-05-14T06:37:53.065Z,13.88
2023-05-14T06:41:03.747Z,14.05
2023-05-14T06:44:08.645Z,14.22
2023-05-14T06:47:14.317Z,14.00
2023-05-14T06:50:18.733Z,14.25
2023-05-14T06:53:22.670Z,14.02
2023-05-14T06:56:26.910Z,13.89
2023-05-14T06:59:32.086Z,13.81
2023-05-14T07:02:38.482Z,13.14
2023-05-14T07:11:16.265Z,13.30
2023-05-14T07:14:20.543Z,13.75
2023-05-14T07:17:50.900Z,13.58
2023-05-14T07:20:55.554Z,13.97
2023-05-14T07:23:59.517Z,13.30
2023-05-14T07:27:03.632Z,13.77
2023-05-14T07:30:09.491Z,13.50
2023-05-14T07:33:14.560Z,13.58
2023-05-14T07:36:18.686Z,13.66
2023-05-14T07:39:22.917Z,13.14
2023-05-14T07:42:35.790Z,13.22
2023-05-14T07:45:40.553Z,13.66
2023-05-14T07:48:45.918Z,14.21
2023-05-14T07:51:49.570Z,14.56
2023-05-14T07:54:53.971Z,14.35
2023-05-14T07:57:57.547Z,14.35
2023-05-14T08:01:02.334Z,14.72
2023-05-14T08:04:08.992Z,14.87
2023-05-14T08:07:15.602Z,14.79
2023-05-14T08:10:19.175Z,14.61
2023-05-14T08:13:23.908Z,14.75
2023-05-14T08:16:27.830Z,14.91
2023-05-14T08:19:34.282Z,15.21
2023-05-14T08:22:38.146Z,15.45
2023-05-14T08:25:42.656Z,15.54
2023-05-14T08:28:46.560Z,16.03
2023-05-14T08:31:52.396Z,16.28
2023-05-14T08:34:57.517Z,16.39
2023-05-14T08:38:01.586Z,15.92
2023-05-14T08:41:07.612Z,16.21
2023-05-14T08:44:15.018Z,16.50
2023-05-14T08:47:20.841Z,16.21
2023-05-14T08:50:28.251Z,16.78
2023-05-14T08:53:32.752Z,17.19
2023-05-14T08:56:38.654Z,17.50
2023-05-14T08:59:42.967Z,16.79
2023-05-14T09:02:49.031Z,17.24
2023-05-14T09:05:55.071Z,17.15
2023-05-14T09:08:59.349Z,17.30
2023-05-14T09:12:03.217Z,17.72
2023-05-14T09:15:08.885Z,17.59
2023-05-14T09:18:12.944Z,18.10
2023-05-14T09:21:19.484Z,17.86
2023-05-14T09:24:25.442Z,17.62
2023-05-14T09:27:32.068Z,17.97
2023-05-14T09:30:37.420Z,17.41
2023-05-14T09:33:41.469Z,16.84
2023-05-14T09:36:46.822Z,17.46
2023-05-14T09:39:54.093Z,17.46
2023-05-14T09:43:01.927Z,17.84
2023-05-14T09:46:06.136Z,18.09
2023-05-14T09:49:10.811Z,17.98
2023-05-14T09:52:16.675Z,17.72
2023-05-14T09:55:22.751Z,17.62
2023-05-14T09:58:30.507Z,17.54
2023-05-14T10:01:34.063Z,17.50
2023-05-14T10:04:39.272Z,17.44
2023-05-14T10:08:05.251Z,17.51
2023-05-14T10:11:15.593Z,17.75
2023-05-14T10:14:26.083Z,17.39
2023-05-14T10:17:33.770Z,17.42
2023-05-14T10:20:39.068Z,16.82
2023-05-14T10:23:45.718Z,17.03
2023-05-14T10:26:50.294Z,16.89
2023-05-14T10:29:56.342Z,17.65
2023-05-14T10:33:11.034Z,17.88
2023-05-14T10:36:15.310Z,18.32
2023-05-14T10:39:20.309Z,18.35
2023-05-14T10:42:27.501Z,18.47
2023-05-14T10:45:34.589Z,18.15
2023-05-14T10:48:40.365Z,18.57
2023-05-14T10:51:44.149Z,18.75
2023-05-14T10:54:52.933Z,18.75
2023-05-14T10:58:02.524Z,19.01
2023-05-14T11:01:08.572Z,19.21
2023-05-14T11:04:20.008Z,19.34
2023-05-14T11:07:26.261Z,19.14
2023-05-14T11:10:32.668Z,18.58
2023-05-14T11:13:37.890Z,19.24
2023-05-14T11:16:43.904Z,19.54
2023-05-14T11:19:49.738Z,19.38
2023-05-14T11:22:55.800Z,19.34
2023-05-14T11:26:03.773Z,19.31
2023-05-14T11:29:07.639Z,19.55
2023-05-14T11:32:12.458Z,19.36
2023-05-14T11:35:16.776Z,19.61
2023-05-14T11:38:22.465Z,19.85
2023-05-14T11:41:28.271Z,19.54
2023-05-14T11:44:32.834Z,18.80
2023-05-14T11:47:36.543Z,19.40
2023-05-14T11:50:41.661Z,19.74
2023-05-14T11:53:47.194Z,18.97
2023-05-14T11:56:53.105Z,19.42
2023-05-14T11:59:59.931Z,19.60
2023-05-14T12:03:05.019Z,19.77
2023-05-14T12:06:11.368Z,19.57
2023-05-14T12:09:24.952Z,19.79
2023-05-14T12:12:36.503Z,19.79
2023-05-14T12:15:41.195Z,19.80
2023-05-14T12:18:46.194Z,19.62
2023-05-14T12:21:53.301Z,19.54
2023-05-14T12:24:57.967Z,18.70
2023-05-14T12:28:15.579Z,19.09
2023-05-14T12:31:19.355Z,18.83
2023-05-14T12:34:23.330Z,18.72
2023-05-14T12:37:27.675Z,19.03
2023-05-14T12:40:33.143Z,19.18
2023-05-14T12:43:38.598Z,19.34
2023-05-14T12:46:45.491Z,19.49
2023-05-14T12:49:52.073Z,19.70
2023-05-14T12:52:56.169Z,19.77
2023-05-14T12:56:01.040Z,18.99
2023-05-14T12:59:07.125Z,18.82
2023-05-14T13:02:10.930Z,19.10
2023-05-14T13:05:15.078Z,19.30
2023-05-14T13:08:21.535Z,19.35
2023-05-14T13:11:25.833Z,19.22
2023-05-14T13:14:31.020Z,19.53
2023-05-14T13:17:35.472Z,19.32
2023-05-14T13:20:39.965Z,19.68
2023-05-14T13:23:45.713Z,19.73
2023-05-14T13:26:49.439Z,19.64
2023-05-14T13:29:54.752Z,20.03
2023-05-14T13:32:59.267Z,19.72
2023-05-14T13:36:04.465Z,19.85
2023-05-14T13:39:07.992Z,19.89
2023-05-14T13:42:13.159Z,19.93
2023-05-14T13:45:18.285Z,19.95
2023-05-14T13:48:22.633Z,19.67
2023-05-14T13:51:26.298Z,19.65
2023-05-14T13:54:30.411Z,19.59
2023-05-14T13:57:34.592Z,19.54
2023-05-14T14:00:41.640Z,19.65
2023-05-14T14:03:45.222Z,19.77
2023-05-14T14:06:49.375Z,19.88
2023-05-14T14:09:53.135Z,19.49
2023-05-14T14:12:57.232Z,19.47
2023-05-14T14:16:03.217Z,19.43
2023-05-14T14:19:09.929Z,19.32
2023-05-14T14:22:16.417Z,19.36
2023-05-14T14:25:28.238Z,19.38
2023-05-14T14:28:32.386Z,19.61
2023-05-14T14:31:37.914Z,20.13
2023-05-14T14:34:41.632Z,20.18
2023-05-14T14:37:49.318Z,19.81
2023-05-14T14:40:53.095Z,19.95
2023-05-14T14:43:57.490Z,19.85
2023-05-14T14:47:02.534Z,19.82
2023-05-14T14:50:08.063Z,19.70
2023-05-14T14:53:11.849Z,19.64
2023-05-14T14:56:16.060Z,19.60
2023-05-14T14:59:19.777Z,19.42
2023-05-14T15:02:29.582Z,19.48
2023-05-14T15:05:34.714Z,19.53
2023-05-14T15:08:39.438Z,19.77
2023-05-14T15:11:43.057Z,19.61
2023-05-14T15:14:47.179Z,19.35
2023-05-14T15:17:52.453Z,19.38
2023-05-14T15:20:57.744Z,19.14
2023-05-14T15:24:01.175Z,19.65
2023-05-14T15:27:07.626Z,19.53
2023-05-14T15:30:12.468Z,19.52
2023-05-14T15:33:19.567Z,19.34
2023-05-14T15:36:23.333Z,19.44
2023-05-14T15:39:28.028Z,19.57
2023-05-14T15:42:33.173Z,19.61
2023-05-14T15:45:37.254Z,19.58
2023-05-14T15:48:45.420Z,19.36
2023-05-14T15:51:51.076Z,19.41
2023-05-14T15:54:56.258Z,19.39
2023-05-14T15:58:00.681Z,19.24
2023-05-14T16:01:04.376Z,19.30
2023-05-14T16:04:10.179Z,19.43
2023-05-14T16:07:14.792Z,19.50
2023-05-14T16:10:22.963Z,19.50
2023-05-14T16:13:27.412Z,19.56
2023-05-14T16:16:31.992Z,19.57
2023-05-14T16:19:37.064Z,19.47
2023-05-14T16:22:41.237Z,19.44
2023-05-14T16:25:51.036Z,19.46
2023-05-14T16:28:55.025Z,19.44
2023-05-14T16:31:58.792Z,19.49
2023-05-14T16:35:04.551Z,19.63
2023-05-14T16:38:09.190Z,19.54
2023-05-14T16:41:13.538Z,19.39
2023-05-14T16:44:18.166Z,19.42
2023-05-14T16:47:22.047Z,19.44
2023-05-14T16:50:27.597Z,19.41
2023-05-14T16:53:31.716Z,19.43
2023-05-14T16:56:35.182Z,19.42
2023-05-14T16:59:39.346Z,19.39
2023-05-14T17:02:43.672Z,19.47
2023-05-14T17:05:51.777Z,19.61
2023-05-14T17:08:56.658Z,19.59
2023-05-14T17:12:00.743Z,19.58
2023-05-14T17:15:05.673Z,19.66
2023-05-14T17:18:12.158Z,19.69
2023-05-14T17:21:17.603Z,19.68
2023-05-14T17:24:21.738Z,19.71
2023-05-14T17:27:26.404Z,19.67
2023-05-14T17:30:30.845Z,19.68
2023-05-14T17:33:35.658Z,19.42
2023-05-14T17:36:43.110Z,19.54
2023-05-14T17:39:46.936Z,19.40
2023-05-14T17:42:50.477Z,19.23
2023-05-14T17:45:54.986Z,19.23
2023-05-14T17:48:59.445Z,19.16
2023-05-14T17:52:04.941Z,18.76
2023-05-14T17:55:09.433Z,18.71
2023-05-14T17:58:16.317Z,18.38
2023-05-14T18:01:20.473Z,17.27
2023-05-14T18:04:24.376Z,17.65
2023-05-14T18:07:29.847Z,17.93
2023-05-14T18:10:33.768Z,17.34
2023-05-14T18:13:37.337Z,17.68
2023-05-14T18:16:41.395Z,17.59
2023-05-14T18:19:53.249Z,17.63
2023-05-14T18:22:58.708Z,17.68
2023-05-14T18:26:02.830Z,17.67
2023-05-14T18:29:07.544Z,17.82
2023-05-14T18:32:11.130Z,17.66
2023-05-14T18:35:15.156Z,17.58
2023-05-14T18:38:20.073Z,17.72
2023-05-14T18:41:25.765Z,17.70
2023-05-14T18:44:29.325Z,17.70
2023-05-14T18:47:34.223Z,17.78
2023-05-14T18:50:42.289Z,17.80
2023-05-14T18:53:48.343Z,17.85
2023-05-14T18:56:52.281Z,17.77
2023-05-14T18:59:58.301Z,17.69
2023-05-14T19:03:03.620Z,17.75
2023-05-14T19:06:09.096Z,17.84
2023-05-14T19:09:31.087Z,17.78
2023-05-14T19:15:54.150Z,17.78
2023-05-14T19:18:59.557Z,17.62
2023-05-14T19:25:52.034Z,17.68
2023-05-14T19:29:13.398Z,17.91
2023-05-14T19:32:36.433Z,17.77
2023-05-14T19:35:41.448Z,17.79
2023-05-14T19:38:57.984Z,17.82
2023-05-14T19:42:05.365Z,17.36
2023-05-14T19:45:10.468Z,17.30
2023-05-14T19:48:16.082Z,17.05
2023-05-14T19:51:22.788Z,17.25
2023-05-14T19:54:26.860Z,17.26
2023-05-14T19:57:35.774Z,17.08
2023-05-14T20:00:39.985Z,17.12
2023-05-14T20:03:43.838Z,16.84
2023-05-14T20:06:53.847Z,16.97
2023-05-14T20:09:58.147Z,17.05
2023-05-14T20:13:03.716Z,17.19
2023-05-14T20:16:18.005Z,17.03
2023-05-14T20:19:22.511Z,16.96
2023-05-14T20:22:26.755Z,16.97
2023-05-14T20:25:35.637Z,16.94
2023-05-14T20:28:43.522Z,17.19
2023-05-14T20:31:48.793Z,17.23
2023-05-14T20:34:52.384Z,17.34
2023-05-14T20:38:01.088Z,17.27
2023-05-14T20:41:07.937Z,17.04
2023-05-14T20:44:13.324Z,17.30
2023-05-14T20:47:21.664Z,17.19
2023-05-14T20:50:39.340Z,17.08
2023-05-14T20:53:42.955Z,17.03
2023-05-14T20:56:50.481Z,16.92
2023-05-14T21:00:24.994Z,17.36
2023-05-14T21:03:31.659Z,17.41
2023-05-14T21:06:35.993Z,17.50
2023-05-14T21:09:40.266Z,17.56
2023-05-14T21:12:44.907Z,17.42
2023-05-14T21:15:50.774Z,17.59
2023-05-14T21:18:55.240Z,17.53
2023-05-14T21:21:59.216Z,17.65
2023-05-14T21:28:30.152Z,17.47
2023-05-14T21:31:36.318Z,17.60
2023-05-14T21:34:40.504Z,17.67
2023-05-14T21:37:44.775Z,17.56
2023-05-14T21:40:49.681Z,17.54
2023-05-14T21:43:53.413Z,17.68
2023-05-14T21:46:58.699Z,17.80
2023-05-14T21:50:02.152Z,17.82
2023-05-14T21:53:07.555Z,17.90
2023-05-14T21:56:11.241Z,17.93
2023-05-14T21:59:15.247Z,17.91
2023-05-14T22:02:20.389Z,17.82
2023-05-14T22:05:26.039Z,17.88
2023-05-14T22:08:30.805Z,17.75
2023-05-14T22:11:34.689Z,17.79
2023-05-14T22:14:38.695Z,17.52
2023-05-14T22:17:44.134Z,17.79
2023-05-14T22:20:47.770Z,17.64
2023-05-14T22:23:52.139Z,17.77
2023-05-14T22:26:55.836Z,17.75
2023-05-14T22:29:59.857Z,17.79
2023-05-14T22:33:05.012Z,17.34
2023-05-14T22:36:10.606Z,17.51
2023-05-14T22:39:14.261Z,17.59
2023-05-14T22:42:20.306Z,17.40
2023-05-14T22:45:24.183Z,17.41
2023-05-14T22:48:29.804Z,17.48
2023-05-14T22:51:33.688Z,17.08
2023-05-14T22:54:37.699Z,16.95
2023-05-14T22:57:41.373Z,16.51
2023-05-14T23:00:47.984Z,16.46
2023-05-14T23:03:52.876Z,16.67
2023-05-14T23:06:57.080Z,16.12
2023-05-14T23:10:00.871Z,16.46
2023-05-14T23:13:05.466Z,16.57
2023-05-14T23:16:09.349Z,16.36
2023-05-14T23:19:14.917Z,16.48
2023-05-14T23:22:18.841Z,16.06
2023-05-14T23:25:23.136Z,15.75
2023-05-14T23:28:27.243Z,15.73
2023-05-14T23:31:31.507Z,15.13
2023-05-14T23:34:36.530Z,15.73
2023-05-14T23:37:47.093Z,15.67
2023-05-14T23:40:50.900Z,15.91
2023-05-14T23:43:55.461Z,15.26
2023-05-14T23:46:59.415Z,15.38
2023-05-14T23:50:05.665Z,15.41
2023-05-14T23:53:09.573Z,15.60
2023-05-14T23:56:13.895Z,15.64
2023-05-14T23:59:17.515Z,15.56
